Detall de PIREP

Printer-friendly versionPDF version

[2012/06/23 16:21:00]
Flight IATA:CT1004
Pilot Number:042
Company ICAO:CAT
Aircraft Type:MD11/E
PAX:132
Aircraft Registration:PAX
Departing Airport: LFMP
Destination Airport: LEVC
Alternate Airport:LEPA
Online: VATSIM
Route:BGR UN975 BCN UM985 SOPET
Flight Level:F310
No Slew and time accel
No pause
Crash detect
Detect pilot in Cockpit between each 30 and 45 minutes
16:21 Zero fuel Weight: 429999 Lbs, Fuel Weight: 17420 Lbs
16:21 VATSIM:LFMP 231600Z 12007KT 090V160 CAVOK 28/11 Q1020 NOSIG
16:21 VATSIM:LEVC 231600Z 08011KT 050V110 CAVOK 26/18 Q1021 NOSIG
16:21 VOICE CATALONIAN/FLAMA DEL CANIGO
16:51 Take-off
16:51 Take off Weight: 473500 Lbs
16:51 Wind: 104º @ 005 Knots Heading: 148º
16:51 POS N42º 44´ 22´´ E002º 52´ 26´´
16:51 Gear Up: 186 Knots
16:51 Flaps:6 at 186 Knots
16:51 Flaps:5 at 169 Knots
16:51 Flaps:4 at 170 Knots
16:52 Flaps:3 at 183 Knots
16:52 Flaps:4 at 183 Knots
16:52 Flaps:3 at 182 Knots
16:52 Flaps:2 at 182 Knots
16:52 Flaps:1 at 181 Knots
16:52 Flaps:0 at 180 Knots
17:02 TOC
17:02 Fuel Weight: 35147 Lb
17:06 Wind:162º@027 Knots Heading: 229º Ground Speed: 456 Knots Altitude 31227 ft
17:21 Wind:173º@021 Knots Heading: 225º Ground Speed: 451 Knots Altitude 31250 ft
17:23 TOD
17:23 Fuel Weight: 30056 Lb
17:35 Flaps:1 at 260 Knots
17:36 Wind:090º@027 Knots Heading: 259º Ground Speed: 303 Knots Altitude 8202 ft
17:38 Flaps:2 at 239 Knots
17:38 Flaps:3 at 238 Knots
17:38 Flaps:4 at 234 Knots
17:41 Flaps:5 at 199 Knots
17:41 Gear Down: 199 Knots
17:41 Flaps:6 at 199 Knots
17:41 Flaps:5 at 199 Knots
17:41 Flaps:6 at 198 Knots
17:42 Flaps:7 at 189 Knots
17:42 Flaps:8 at 182 Knots
17:42 Flaps:7 at 181 Knots
17:42 Flaps:8 at 174 Knots
17:46 TouchDown:Rate -229 ft/min Speed: 159 Knots
17:46 VATSIM:LEVC 231730Z 08011KT 9999 FEW025 25/20 Q1021 NOSIG
17:46 Land
17:46 Wind:080º@011 Knots
17:46 Heading: 114º
17:46 Flight Duration: 00:55
17:46 Landing Weight: 455136 Lbs
17:46 POS N39º 29´ 24´´ W000º 29´ 01´´
17:48 Parking brakes on
17:48 Block to Block Duration: 00:57
17:48 Final Fuel: 24737 Lbls
17:48 Spent Fuel: 878700042 Lbls
17:48 Flight Length: 231 NM
17:48 TOD Land Length: 120 NM

Exportar CSV

Powered by Drupal - Modified by Danger4k